createdAt,value
2022-11-05T00:00:16.202Z,4.00
2022-11-05T00:03:07.297Z,5.03
2022-11-05T00:05:52.893Z,4.47
2022-11-05T00:08:38.206Z,6.40
2022-11-05T00:11:06.301Z,4.53
2022-11-05T00:13:53.024Z,4.17
2022-11-05T00:16:34.796Z,5.03
2022-11-05T00:19:09.898Z,3.90
2022-11-05T00:21:56.649Z,4.03
2022-11-05T00:24:43.320Z,4.83
2022-11-05T00:27:11.589Z,6.93
2022-11-05T00:29:40.768Z,6.27
2022-11-05T00:32:08.613Z,5.27
2022-11-05T00:34:36.435Z,4.30
2022-11-05T00:37:04.311Z,5.67
2022-11-05T00:39:32.150Z,5.83
2022-11-05T00:42:17.510Z,5.00
2022-11-05T00:45:02.056Z,4.00
2022-11-05T00:47:59.636Z,6.03
2022-11-05T00:50:28.447Z,9.20
2022-11-05T00:52:59.283Z,8.10
2022-11-05T00:55:30.016Z,6.93
2022-11-05T00:57:58.490Z,7.53
2022-11-05T01:00:29.487Z,6.97
2022-11-05T01:03:01.746Z,9.10
2022-11-05T01:05:30.864Z,5.73
2022-11-05T01:07:59.457Z,8.00
2022-11-05T01:10:28.006Z,8.53
2022-11-05T01:12:56.017Z,5.83
2022-11-05T01:15:24.519Z,6.00
2022-11-05T01:17:53.854Z,7.30
2022-11-05T01:20:21.700Z,5.53
2022-11-05T01:22:49.509Z,9.53
2022-11-05T01:25:17.482Z,6.23
2022-11-05T01:27:45.351Z,6.70
2022-11-05T01:30:14.221Z,8.50
2022-11-05T01:32:42.122Z,7.77
2022-11-05T01:35:14.164Z,8.90
2022-11-05T01:37:42.380Z,14.77
2022-11-05T01:40:12.531Z,11.53
2022-11-05T01:42:40.401Z,8.40
2022-11-05T01:45:17.134Z,8.67
2022-11-05T01:48:04.090Z,10.57
2022-11-05T01:50:38.155Z,11.77
2022-11-05T01:53:16.273Z,9.20
2022-11-05T01:55:49.022Z,8.20
2022-11-05T01:58:22.208Z,12.53
2022-11-05T02:00:50.104Z,11.40
2022-11-05T02:03:19.173Z,12.23
2022-11-05T02:05:50.546Z,8.50
2022-11-05T02:08:28.133Z,8.47
2022-11-05T02:10:56.185Z,8.80
2022-11-05T02:13:24.014Z,13.23
2022-11-05T02:16:02.001Z,10.67
2022-11-05T02:18:41.741Z,16.07
2022-11-05T02:21:37.402Z,10.57
2022-11-05T02:24:52.966Z,13.53
2022-11-05T02:27:33.202Z,11.57
2022-11-05T02:30:08.300Z,13.23
2022-11-05T02:32:55.397Z,14.23
2022-11-05T02:35:37.702Z,14.80
2022-11-05T02:38:10.356Z,13.60
2022-11-05T02:40:48.332Z,15.57
2022-11-05T02:43:24.223Z,14.83
2022-11-05T02:46:03.037Z,20.60
2022-11-05T02:48:43.801Z,14.53
2022-11-05T02:51:17.516Z,14.80
2022-11-05T02:53:51.892Z,16.57
2022-11-05T02:56:24.730Z,11.87
2022-11-05T02:58:52.589Z,16.80
2022-11-05T03:01:20.593Z,14.60
2022-11-05T03:03:52.625Z,14.83
2022-11-05T03:06:48.213Z,20.50
2022-11-05T03:10:00.351Z,16.10
2022-11-05T03:12:34.612Z,18.63
2022-11-05T03:15:12.884Z,20.63
2022-11-05T03:17:51.266Z,16.27
2022-11-05T03:20:24.829Z,18.67
2022-11-05T03:22:56.656Z,17.83
2022-11-05T03:25:26.773Z,17.17
2022-11-05T03:27:59.645Z,15.63
2022-11-05T03:30:27.857Z,18.97
2022-11-05T03:32:59.326Z,17.57
2022-11-05T03:35:31.481Z,16.13
2022-11-05T03:38:03.034Z,15.90
2022-11-05T03:40:35.862Z,25.93
2022-11-05T03:43:08.013Z,19.80
2022-11-05T03:45:41.420Z,14.80
2022-11-05T03:48:12.462Z,17.80
2022-11-05T03:50:46.718Z,15.70
2022-11-05T03:53:18.516Z,18.27
2022-11-05T03:55:52.521Z,17.13
2022-11-05T03:58:22.486Z,16.13
2022-11-05T04:00:51.722Z,13.47
2022-11-05T04:03:19.834Z,14.13
2022-11-05T04:06:09.201Z,13.33
2022-11-05T04:08:54.580Z,13.20
2022-11-05T04:11:39.963Z,17.23
2022-11-05T04:14:07.773Z,16.53
2022-11-05T04:16:53.518Z,19.60
2022-11-05T04:19:41.425Z,18.00
2022-11-05T04:22:28.006Z,17.77
2022-11-05T04:24:55.837Z,16.43
2022-11-05T04:27:23.780Z,21.23
2022-11-05T04:30:09.228Z,16.13
2022-11-05T04:32:37.157Z,15.90
2022-11-05T04:35:05.285Z,18.50
2022-11-05T04:37:34.465Z,19.30
2022-11-05T04:40:02.372Z,16.80
2022-11-05T04:42:30.279Z,19.07
2022-11-05T04:44:58.119Z,16.40
2022-11-05T04:47:25.946Z,15.20
2022-11-05T04:49:53.770Z,16.07
2022-11-05T04:52:21.641Z,15.93
2022-11-05T04:54:50.794Z,17.60
2022-11-05T04:57:18.633Z,14.60
2022-11-05T04:59:49.102Z,14.10
2022-11-05T05:02:17.043Z,16.33
2022-11-05T05:04:44.916Z,15.63
2022-11-05T05:07:12.749Z,13.43
2022-11-05T05:09:40.584Z,21.60
2022-11-05T05:12:10.000Z,20.63
2022-11-05T05:14:38.066Z,15.67
2022-11-05T05:17:05.942Z,16.67
2022-11-05T05:19:54.291Z,18.93
2022-11-05T05:22:21.129Z,18.23
2022-11-05T05:24:52.747Z,17.67
2022-11-05T05:27:23.275Z,15.70
2022-11-05T05:29:51.130Z,18.27
2022-11-05T05:32:18.978Z,18.33
2022-11-05T05:34:46.794Z,15.60
2022-11-05T05:37:14.742Z,12.40
2022-11-05T05:39:44.473Z,13.40
2022-11-05T05:42:12.635Z,13.57
2022-11-05T05:44:41.906Z,16.27
2022-11-05T05:47:09.801Z,16.13
2022-11-05T05:49:37.808Z,16.20
2022-11-05T05:52:05.929Z,13.43
2022-11-05T05:54:38.304Z,22.50
2022-11-05T05:57:09.264Z,17.43
2022-11-05T05:59:37.128Z,17.87
2022-11-05T06:02:06.465Z,13.33
2022-11-05T06:04:34.368Z,13.13
2022-11-05T06:07:02.202Z,14.33
2022-11-05T06:09:30.201Z,14.13
2022-11-05T06:11:58.016Z,15.13
2022-11-05T06:14:25.857Z,17.90
2022-11-05T06:16:53.695Z,11.57
2022-11-05T06:19:23.116Z,12.00
2022-11-05T06:21:51.018Z,14.90
2022-11-05T06:24:18.850Z,14.30
2022-11-05T06:26:46.687Z,14.63
2022-11-05T06:29:14.527Z,14.33
2022-11-05T06:31:42.419Z,13.77
2022-11-05T06:34:10.295Z,13.03
2022-11-05T06:36:40.075Z,15.37
2022-11-05T06:39:11.499Z,14.13
2022-11-05T06:42:03.889Z,15.57
2022-11-05T06:44:27.207Z,14.80
2022-11-05T06:46:55.089Z,14.43
2022-11-05T06:49:24.462Z,12.90
2022-11-05T06:51:53.729Z,16.90
2022-11-05T06:54:21.764Z,16.47
2022-11-05T06:56:49.602Z,18.80
2022-11-05T06:59:17.437Z,15.93
2022-11-05T07:01:45.597Z,12.10
2022-11-05T07:04:13.588Z,13.37
2022-11-05T07:06:41.451Z,13.30
2022-11-05T07:09:10.649Z,12.33
2022-11-05T07:11:38.489Z,13.23
2022-11-05T07:14:06.319Z,11.83
2022-11-05T07:16:34.183Z,11.70
2022-11-05T07:19:02.015Z,10.80
2022-11-05T07:21:29.852Z,12.63
2022-11-05T07:23:57.671Z,13.13
2022-11-05T07:26:31.854Z,11.03
2022-11-05T07:29:02.171Z,11.13
2022-11-05T07:31:30.023Z,18.70
2022-11-05T07:33:59.105Z,14.57
2022-11-05T07:36:26.961Z,13.40
2022-11-05T07:38:59.876Z,12.53
2022-11-05T07:41:29.727Z,12.07
2022-11-05T07:43:57.623Z,14.13
2022-11-05T07:46:25.459Z,16.13
2022-11-05T07:48:53.313Z,13.33
2022-11-05T07:51:21.118Z,16.43
2022-11-05T07:53:49.116Z,15.00
2022-11-05T07:56:17.148Z,14.60
2022-11-05T07:58:46.329Z,15.50
2022-11-05T08:01:14.312Z,14.87
2022-11-05T08:03:42.292Z,14.20
2022-11-05T08:06:10.239Z,14.83
2022-11-05T08:08:38.053Z,12.97
2022-11-05T08:11:06.859Z,18.33
2022-11-05T08:13:35.437Z,14.40
2022-11-05T08:16:05.658Z,16.17
2022-11-05T08:18:33.994Z,19.33
2022-11-05T08:21:04.698Z,15.90
2022-11-05T08:23:33.689Z,16.47
2022-11-05T08:26:04.245Z,16.93
2022-11-05T08:28:32.703Z,18.07
2022-11-05T08:31:00.542Z,16.37
2022-11-05T08:33:31.251Z,17.53
2022-11-05T08:36:03.471Z,17.17
2022-11-05T08:38:32.182Z,15.13
2022-11-05T08:41:00.355Z,16.60
2022-11-05T08:43:28.251Z,13.47
2022-11-05T08:45:56.444Z,15.30
2022-11-05T08:48:24.307Z,15.97
2022-11-05T08:50:53.523Z,17.40
2022-11-05T08:53:21.399Z,18.13
2022-11-05T08:55:51.089Z,15.27
2022-11-05T08:58:20.560Z,16.77
2022-11-05T09:00:50.549Z,12.63
2022-11-05T09:03:18.708Z,13.87
2022-11-05T09:05:46.917Z,15.80
2022-11-05T09:08:18.301Z,14.90
2022-11-05T09:10:47.703Z,13.33
2022-11-05T09:13:19.499Z,13.23
2022-11-05T09:15:48.892Z,14.20
2022-11-05T09:18:17.921Z,15.70
2022-11-05T09:20:46.555Z,12.60
2022-11-05T09:23:16.232Z,14.53
2022-11-05T09:25:44.534Z,13.40
2022-11-05T09:28:16.774Z,13.70
2022-11-05T09:30:46.804Z,15.53
2022-11-05T09:33:15.264Z,12.47
2022-11-05T09:35:43.881Z,14.63
2022-11-05T09:38:12.232Z,15.70
2022-11-05T09:40:46.135Z,15.83
2022-11-05T09:43:19.224Z,16.30
2022-11-05T09:45:50.559Z,13.83
2022-11-05T09:48:22.358Z,13.70
2022-11-05T09:50:52.461Z,14.10
2022-11-05T09:53:22.470Z,16.43
2022-11-05T09:55:55.276Z,15.57
2022-11-05T09:58:32.245Z,12.40
2022-11-05T10:01:00.276Z,13.93
2022-11-05T10:03:31.307Z,12.97
2022-11-05T10:06:08.261Z,14.13
2022-11-05T10:08:42.017Z,13.87
2022-11-05T10:11:16.769Z,11.23
2022-11-05T10:13:48.004Z,13.13
2022-11-05T10:16:24.344Z,14.33
2022-11-05T10:18:56.673Z,14.10
2022-11-05T10:21:51.526Z,14.33
2022-11-05T10:24:16.447Z,15.17
2022-11-05T10:26:50.335Z,13.07
2022-11-05T10:29:26.421Z,12.63
2022-11-05T10:31:56.129Z,16.90
2022-11-05T10:34:27.810Z,12.67
2022-11-05T10:36:55.710Z,14.57
2022-11-05T10:39:27.475Z,14.73
2022-11-05T10:42:09.355Z,13.97
2022-11-05T10:44:42.471Z,14.33
2022-11-05T10:47:43.311Z,13.10
2022-11-05T10:50:13.716Z,14.67
2022-11-05T10:52:52.234Z,14.30
2022-11-05T10:55:29.501Z,14.60
2022-11-05T10:58:09.090Z,15.10
2022-11-05T11:00:37.640Z,15.23
2022-11-05T11:03:07.406Z,12.30
2022-11-05T11:05:38.954Z,13.33
2022-11-05T11:08:23.223Z,11.47
2022-11-05T11:10:55.713Z,13.50
2022-11-05T11:13:27.633Z,11.73
2022-11-05T11:16:13.943Z,12.33
2022-11-05T11:18:44.772Z,11.77
2022-11-05T11:21:16.664Z,13.13
2022-11-05T11:23:53.883Z,12.53
2022-11-05T11:26:22.674Z,15.97
2022-11-05T11:28:57.229Z,11.87
2022-11-05T11:31:26.710Z,13.23
2022-11-05T11:33:59.727Z,14.00
2022-11-05T11:36:35.099Z,12.13
2022-11-05T11:39:05.250Z,13.13
2022-11-05T11:41:36.949Z,12.30
2022-11-05T11:44:12.955Z,13.07
2022-11-05T11:46:41.058Z,12.10
2022-11-05T11:49:31.755Z,13.83
2022-11-05T11:52:04.199Z,14.27
2022-11-05T11:54:34.306Z,11.07
2022-11-05T11:57:02.213Z,12.20
2022-11-05T11:59:54.298Z,11.47
2022-11-05T12:02:48.038Z,8.97
2022-11-05T12:05:24.633Z,12.03
2022-11-05T12:07:54.870Z,10.33
2022-11-05T12:10:47.489Z,7.77
2022-11-05T12:13:47.192Z,7.03
2022-11-05T12:16:26.009Z,10.50
2022-11-05T12:18:59.329Z,8.03
2022-11-05T12:21:51.941Z,8.40
2022-11-05T12:24:55.593Z,7.13
2022-11-05T12:27:41.308Z,5.80
2022-11-05T12:30:14.798Z,7.63
2022-11-05T12:32:56.219Z,6.67
2022-11-05T12:35:46.995Z,8.00
2022-11-05T12:38:28.309Z,7.43
2022-11-05T12:41:08.774Z,6.33
2022-11-05T12:43:49.845Z,4.80
2022-11-05T12:46:27.213Z,7.77
2022-11-05T12:49:25.105Z,9.37
2022-11-05T12:52:07.409Z,6.33
2022-11-05T12:54:53.535Z,5.70
2022-11-05T12:57:23.767Z,6.13
2022-11-05T12:59:55.876Z,6.43
2022-11-05T13:02:29.307Z,5.13
2022-11-05T13:05:02.725Z,4.90
2022-11-05T13:07:34.189Z,4.70
2022-11-05T13:10:08.367Z,5.80
2022-11-05T13:12:40.768Z,7.97
2022-11-05T13:15:20.554Z,6.60
2022-11-05T13:17:53.689Z,7.27
2022-11-05T13:20:26.136Z,6.50
2022-11-05T13:22:58.017Z,6.70
2022-11-05T13:25:29.571Z,5.73
2022-11-05T13:28:03.382Z,7.07
2022-11-05T13:30:37.227Z,7.00
2022-11-05T13:33:08.496Z,4.30
2022-11-05T13:35:43.886Z,7.20
2022-11-05T13:38:38.783Z,6.03
2022-11-05T13:41:21.314Z,5.70
2022-11-05T13:44:05.861Z,5.00
2022-11-05T13:46:47.843Z,6.20
2022-11-05T13:49:48.381Z,5.47
2022-11-05T13:52:37.593Z,6.87
2022-11-05T13:55:41.475Z,6.30
2022-11-05T13:58:35.023Z,6.53
2022-11-05T14:01:15.340Z,6.10
2022-11-05T14:03:48.162Z,6.73
2022-11-05T14:06:23.637Z,5.20
2022-11-05T14:08:56.473Z,5.53
2022-11-05T14:11:30.145Z,6.73
2022-11-05T14:14:00.408Z,4.40
2022-11-05T14:16:40.627Z,5.57
2022-11-05T14:19:33.323Z,5.60
2022-11-05T14:22:21.404Z,5.27
2022-11-05T14:24:50.605Z,5.93
2022-11-05T14:27:43.534Z,7.00
2022-11-05T14:30:44.165Z,3.80
2022-11-05T14:33:34.316Z,5.50
2022-11-05T14:36:41.142Z,3.90
2022-11-05T14:39:25.464Z,4.27
2022-11-05T14:42:01.703Z,6.00
2022-11-05T14:44:30.828Z,4.43
2022-11-05T14:47:03.120Z,4.87
2022-11-05T14:49:34.567Z,6.13
2022-11-05T14:52:07.950Z,4.93
2022-11-05T14:54:42.465Z,9.30
2022-11-05T14:57:15.476Z,3.83
2022-11-05T15:00:01.844Z,5.33
2022-11-05T15:02:36.817Z,4.63
2022-11-05T15:05:40.042Z,5.33
2022-11-05T15:08:39.058Z,7.40
2022-11-05T15:11:14.385Z,4.00
2022-11-05T15:13:56.609Z,6.37
2022-11-05T15:16:26.909Z,4.57
2022-11-05T15:18:56.347Z,4.77
2022-11-05T15:21:25.621Z,5.20
2022-11-05T15:23:57.284Z,7.27
2022-11-05T15:26:31.444Z,5.60
2022-11-05T15:29:01.876Z,4.97
2022-11-05T15:31:34.401Z,6.53
2022-11-05T15:34:18.147Z,6.53
2022-11-05T15:36:56.611Z,6.03
2022-11-05T15:39:31.647Z,6.60
2022-11-05T15:42:01.964Z,6.87
2022-11-05T15:44:33.086Z,6.20
2022-11-05T15:47:15.958Z,7.00
2022-11-05T15:49:45.771Z,5.23
2022-11-05T15:52:15.211Z,9.00
2022-11-05T15:54:43.880Z,4.63
2022-11-05T15:57:21.331Z,6.00
2022-11-05T15:59:50.811Z,5.77
2022-11-05T16:02:33.791Z,5.30
2022-11-05T16:05:03.389Z,3.83
2022-11-05T16:07:31.339Z,5.67
2022-11-05T16:10:01.490Z,8.10
2022-11-05T16:12:35.176Z,7.93
2022-11-05T16:15:19.649Z,8.90
2022-11-05T16:17:50.868Z,8.47
2022-11-05T16:20:21.463Z,6.73
2022-11-05T16:22:51.331Z,8.13
2022-11-05T16:25:37.469Z,5.07
2022-11-05T16:28:07.224Z,7.87
2022-11-05T16:30:36.405Z,8.03
2022-11-05T16:33:06.584Z,4.87
2022-11-05T16:35:34.746Z,6.27
2022-11-05T16:38:03.738Z,7.17
2022-11-05T16:40:31.563Z,4.23
2022-11-05T16:43:16.484Z,8.57
2022-11-05T16:45:45.852Z,5.87
2022-11-05T16:48:15.082Z,5.07
2022-11-05T16:50:43.798Z,6.73
2022-11-05T16:53:12.036Z,4.13
2022-11-05T16:55:42.248Z,7.67
2022-11-05T16:58:19.400Z,4.83
2022-11-05T17:00:49.478Z,4.60
2022-11-05T17:03:17.411Z,6.57
2022-11-05T17:05:45.353Z,7.53
2022-11-05T17:08:13.529Z,9.10
2022-11-05T17:10:41.559Z,5.73
2022-11-05T17:13:11.040Z,7.00
2022-11-05T17:15:38.884Z,10.33
2022-11-05T17:18:08.072Z,7.47
2022-11-05T17:20:40.667Z,6.93
2022-11-05T17:23:11.588Z,7.80
2022-11-05T17:25:40.563Z,7.17
2022-11-05T17:28:09.854Z,6.73
2022-11-05T17:30:40.359Z,6.50
2022-11-05T17:33:11.977Z,6.43
2022-11-05T17:35:40.579Z,6.87
2022-11-05T17:38:08.885Z,8.90
2022-11-05T17:40:37.716Z,6.10
2022-11-05T17:43:06.094Z,5.27
2022-11-05T17:45:34.338Z,5.63
2022-11-05T17:48:03.201Z,7.57
2022-11-05T17:50:32.376Z,6.60
2022-11-05T17:53:00.212Z,7.20
2022-11-05T17:55:28.106Z,6.90
2022-11-05T17:57:55.957Z,7.10
2022-11-05T18:00:25.369Z,8.03
2022-11-05T18:02:54.430Z,6.63
2022-11-05T18:05:24.016Z,7.17
2022-11-05T18:07:53.339Z,6.57
2022-11-05T18:10:21.222Z,6.87
2022-11-05T18:12:49.919Z,6.77
2022-11-05T18:15:18.686Z,7.37
2022-11-05T18:17:47.041Z,7.07
2022-11-05T18:20:19.302Z,6.67
2022-11-05T18:22:49.568Z,7.43
2022-11-05T18:25:25.769Z,10.92
2022-11-05T18:27:53.753Z,7.73
2022-11-05T18:30:21.616Z,6.63
2022-11-05T18:32:50.930Z,7.83
2022-11-05T18:35:18.993Z,7.43
2022-11-05T18:37:46.884Z,9.50
2022-11-05T18:40:14.708Z,7.33
2022-11-05T18:42:43.887Z,7.07
2022-11-05T18:45:12.574Z,9.23
2022-11-05T18:47:40.410Z,7.80
2022-11-05T18:50:10.314Z,6.53
2022-11-05T18:52:38.176Z,6.67
2022-11-05T18:55:07.276Z,7.50
2022-11-05T18:57:35.473Z,7.73
2022-11-05T19:00:05.553Z,11.80
2022-11-05T19:02:33.652Z,5.47
2022-11-05T19:07:49.502Z,8.43
2022-11-05T19:10:17.372Z,9.47
2022-11-05T19:12:45.182Z,6.07
2022-11-05T19:15:14.361Z,6.43
2022-11-05T19:17:42.198Z,7.83
2022-11-05T19:20:10.642Z,6.50
2022-11-05T19:22:38.567Z,7.90
2022-11-05T19:25:07.548Z,8.03
2022-11-05T19:27:37.438Z,7.93
2022-11-05T19:30:06.025Z,6.47
2022-11-05T19:32:35.246Z,11.03
2022-11-05T19:35:03.023Z,10.77
2022-11-05T19:37:30.902Z,9.17
2022-11-05T19:39:58.697Z,8.80
2022-11-05T19:42:27.665Z,8.33
2022-11-05T19:44:55.473Z,8.60
2022-11-05T19:47:23.303Z,8.30
2022-11-05T19:49:52.445Z,11.00
2022-11-05T19:52:20.271Z,9.33
2022-11-05T19:54:48.227Z,7.60
2022-11-05T19:57:16.065Z,7.27
2022-11-05T19:59:43.893Z,8.13
2022-11-05T20:02:15.975Z,9.77
2022-11-05T20:04:44.164Z,10.83
2022-11-05T20:07:13.346Z,8.70
2022-11-05T20:09:41.339Z,9.23
2022-11-05T20:12:09.222Z,11.53
2022-11-05T20:14:37.328Z,8.60
2022-11-05T20:17:05.195Z,9.87
2022-11-05T20:19:33.540Z,8.87
2022-11-05T20:22:01.784Z,10.30
2022-11-05T20:24:30.988Z,9.70
2022-11-05T20:26:58.821Z,8.63
2022-11-05T20:29:34.724Z,10.17
2022-11-05T20:32:03.929Z,8.50
2022-11-05T20:34:33.057Z,8.77
2022-11-05T20:37:01.574Z,7.43
2022-11-05T20:39:30.817Z,9.13
2022-11-05T20:42:00.370Z,8.57
2022-11-05T20:44:28.737Z,9.13
2022-11-05T20:46:56.599Z,7.73
2022-11-05T20:49:25.832Z,9.97
2022-11-05T20:51:54.093Z,8.27
2022-11-05T20:54:21.967Z,9.57
2022-11-05T20:56:51.175Z,7.73
2022-11-05T20:59:19.358Z,7.70
2022-11-05T21:01:47.260Z,8.27
2022-11-05T21:04:15.202Z,8.10
2022-11-05T21:06:43.028Z,8.27
2022-11-05T21:09:10.885Z,7.50
2022-11-05T21:11:52.745Z,7.53
2022-11-05T21:14:21.940Z,8.47
2022-11-05T21:16:49.859Z,9.07
2022-11-05T21:19:17.699Z,6.80
2022-11-05T21:21:45.515Z,9.13
2022-11-05T21:24:13.320Z,8.83
2022-11-05T21:26:41.162Z,6.20
2022-11-05T21:29:09.023Z,7.50
2022-11-05T21:31:38.684Z,6.37
2022-11-05T21:34:06.573Z,8.33
2022-11-05T21:36:35.250Z,8.20
2022-11-05T21:39:05.598Z,7.87
2022-11-05T21:41:35.710Z,9.50
2022-11-05T21:44:04.569Z,6.93
2022-11-05T21:46:32.472Z,7.20
2022-11-05T21:49:02.288Z,7.03
2022-11-05T21:51:47.921Z,7.37
2022-11-05T21:54:33.252Z,11.53
2022-11-05T21:57:18.590Z,6.37
2022-11-05T21:59:49.571Z,7.83
2022-11-05T22:02:19.466Z,6.87
2022-11-05T22:04:50.201Z,6.67
2022-11-05T22:07:19.981Z,8.63
2022-11-05T22:09:47.970Z,8.70
2022-11-05T22:12:16.729Z,7.93
2022-11-05T22:14:44.742Z,10.47
2022-11-05T22:17:14.253Z,9.60
2022-11-05T22:19:42.419Z,6.77
2022-11-05T22:22:11.805Z,8.97
2022-11-05T22:24:39.974Z,7.07
2022-11-05T22:27:09.949Z,5.53
2022-11-05T22:29:38.356Z,8.90
2022-11-05T22:32:07.234Z,7.67
2022-11-05T22:34:35.136Z,9.27
2022-11-05T22:37:02.985Z,7.00
2022-11-05T22:39:32.163Z,10.13
2022-11-05T22:42:05.545Z,7.73
2022-11-05T22:44:36.858Z,7.70
2022-11-05T22:47:05.345Z,7.50
2022-11-05T22:49:33.987Z,8.13
2022-11-05T22:52:01.819Z,7.47
2022-11-05T22:54:32.701Z,6.90
2022-11-05T22:57:04.442Z,8.10
2022-11-05T22:59:32.566Z,8.13
2022-11-05T23:02:03.911Z,7.33
2022-11-05T23:04:34.500Z,7.50
2022-11-05T23:07:24.623Z,7.20
2022-11-05T23:10:12.517Z,6.47
2022-11-05T23:12:43.021Z,6.83
2022-11-05T23:15:32.166Z,5.60
2022-11-05T23:18:17.927Z,7.90
2022-11-05T23:21:03.576Z,6.10
2022-11-05T23:23:49.242Z,7.70
2022-11-05T23:26:34.672Z,5.47
2022-11-05T23:29:04.218Z,7.93
2022-11-05T23:31:49.545Z,8.83
2022-11-05T23:34:17.347Z,8.07
2022-11-05T23:37:02.915Z,5.70
2022-11-05T23:39:30.781Z,6.37
2022-11-05T23:42:16.177Z,5.20
2022-11-05T23:45:03.030Z,6.13
2022-11-05T23:47:48.613Z,5.97
2022-11-05T23:50:16.584Z,10.57
2022-11-05T23:52:44.453Z,7.87
2022-11-05T23:55:12.285Z,7.43
2022-11-05T23:57:40.746Z,6.90
